Airfield :
LOGIN :

Register | Disclaimer

   EN    FR    IT 

 










Legend :    VFR   Marginal VFR   IFR   Intensive IFR   Very Intensive IFR
Visi :
Ceiling :
>= 8 km
>= 3000ft
5 to 8 km
1000 to 3000 ft
1500m to 5 km
500 to 1000 ft
800 to 1500m
200 to 500 ft
< 800m
< 200 ft
Symbols :   Thunderstorms  Fog  Heavy snow  Heavy precipitations  Wind > 20 kt
SIGMETs :     Misc.  Thunderstorms  Icing  Turbulence  Mountain Waves  Volcanic Ashes






- Airport Elevation : 650 ft
- IATA code : ZJI


LSZL - Locarno

CURRENT METAR :
  • 221120Z 25005KT 9999 FEW100 15/06 Q1018 RMK BLU+

EXPIRED METARs :
  • 221050Z 25007KT CAVOK 14/05 Q1019 RMK BLU
  • 221020Z AUTO 24007KT 9999NDV FEW043 14/07 Q1019 RMK
  • 220950Z 24005KT 210V280 9999 FEW055 14/06 Q1019 RMK BLU+
  • 220920Z 25004KT 210V280 9999 FEW060 14/06 Q1019 RMK BLU+
  • 220850Z VRB02KT 9999 FEW055 13/05 Q1019 RMK BLU+

TAF TAF LSZL
Valid from the 22 at 12:00 until the 22 at 21:00 UTC


221125Z 2212/2221 24007KT 9999 FEW043



MET'MAP, your aeronautical weather chart ! - Copyright ORBIFLY December 2007 - Disclaimer

ORBIFLY MET'MAP TEAM :

Programming & Development : Alexandra Zaïnal
Concept & original design : Baudouin d'Aumeries
Assistance for programming : Marc-Olivier Méhu
Technical & hardware support : Manuel Goepfert

Contact : metmap@orbifly.com




SOURCES & CREDITS :

   NOAA